Latest Coastal Weather Observations for Cape Sorell

IDT60701

Issued at 5:03 pm EDT Friday 3 December 2021 (issued every 10 minutes, with the page automatically refreshed every 10 minutes)

About coastal observations | Map of coastal stations | Coastal observations for TAS | Marine services | Other Formats
Station Details ID: 097000 Name: CAPE SORELL Lat: -42.20 Lon: 145.17 Height: 19.3 m
Data from the previous 72 hours. | See also: Recent months at Cape Sorell
Date/Time
EDT
Wind Sea
Height
m
Swell Vis
km
Cloud Weather Temp
°C
Press
MSL
hPa
Rain since
9am
mm
Dir  Spd
kts
Gust
kts
Height
m
Period
s
Dir
03/05:00pm NW 10 14 - - - - - - - 16.2 - 0.0
03/04:30pm NW 11 16 - - - - - - - 17.0 - 0.0
03/04:00pm WNW 10 14 - - - - - - - 16.9 - 0.0
03/03:30pm NW 9 12 - - - - - - - 17.6 - 0.0
03/03:00pm WNW 8 11 - - - - - - - 17.6 - 0.0
03/02:30pm WNW 9 12 - - - - - - - 17.5 - 0.0
03/02:00pm WNW 8 11 - - - - - - - 17.4 - 0.0
03/01:30pm WNW 7 9 - - - - - - - 17.4 - 0.0
03/01:00pm W 7 10 - - - - - - - 17.3 - 0.0
03/12:30pm W 7 9 - - - - - - - 17.1 - 0.0
03/12:00pm W 6 8 - - - - - - - 17.1 - 0.0
03/11:30am WSW 6 9 - - - - - - - 16.3 - 0.0
03/11:00am WSW 6 8 - - - - - - - 16.1 - 0.0
03/10:30am WSW 7 9 - - - - - - - 15.4 - 0.0
03/10:00am SW 8 10 - - - - - - - 15.2 - 0.0
03/09:30am SW 8 10 - - - - - - - 13.6 - 0.0
03/09:00am SW 9 11 - - - - - - - 14.5 - 0.4
03/08:30am WSW 9 11 - - - - - - - 13.5 - 0.4
03/08:00am SW 9 12 - - - - - - - 13.2 - 0.4
03/07:30am SW 11 13 - - - - - - - 12.6 - 0.4
03/07:00am SW 11 13 - - - - - - - 11.9 - 0.4
03/06:30am SW 8 11 - - - - - - - 12.0 - 0.4
03/06:00am WSW 10 12 - - - - - - - 11.8 - 0.4
03/05:30am SW 11 13 - - - - - - - 11.6 - 0.4
03/05:00am SW 12 15 - - - - - - - 11.8 - 0.4
03/04:30am SW 12 15 - - - - - - - 11.8 - 0.4
03/04:00am SW 14 16 - - - - - - - 11.8 - 0.4
03/03:30am SW 14 17 - - - - - - - 12.0 - 0.4
03/03:00am SW 13 16 - - - - - - - 11.7 - 0.4
03/02:30am SW 13 16 - - - - - - - 11.8 - 0.4
03/02:00am SW 13 15 - - - - - - - 11.7 - 0.4
03/01:30am WSW 10 13 - - - - - - - 11.8 - 0.4
03/01:07am W 10 23 - - - - - - - 12.7 - 0.2
03/01:00am WNW 7 9 - - - - - - - 13.2 - 0.2
03/12:30am WNW 7 9 - - - - - - - 12.8 - 0.2
03/12:00am NW 5 7 - - - - - - - 12.5 - 0.2
 
Date/Time
EDT
Wind Sea
Height
m
Swell Vis
km
Cloud Weather Temp
°C
Press
MSL
hPa
Rain since
9am
mm
Dir  Spd
kts
Gust
kts
Height
m
Period
s
Dir
02/11:30pm NW 6 10 - - - - - - - 12.7 - 0.2
02/11:00pm NW 8 11 - - - - - - - 12.8 - 0.2
02/10:30pm WNW 11 15 - - - - - - - 13.4 - 0.2
02/10:00pm WNW 9 11 - - - - - - - 13.3 - 0.2
02/09:30pm W 10 13 - - - - - - - 13.4 - 0.2
02/09:00pm W 10 13 - - - - - - - 13.1 - 0.2
02/08:30pm W 8 12 - - - - - - - 12.9 - 0.2
02/08:00pm W 9 12 - - - - - - - 12.9 - 0.2
02/07:30pm WSW 12 15 - - - - - - - 12.8 - 0.2
02/07:00pm WSW 8 11 - - - - - - - 13.0 - 0.2
02/06:30pm WSW 9 11 - - - - - - - 13.1 - 0.2
02/06:00pm SW 9 11 - - - - - - - 13.3 - 0.2
02/05:30pm SW 8 10 - - - - - - - 13.5 - 0.2
02/05:00pm WSW 5 8 - - - - - - - 13.7 - 0.2
02/04:30pm SW 6 8 - - - - - - - 14.2 - 0.2
02/04:00pm SW 7 9 - - - - - - - 14.6 - 0.0
02/03:30pm SW 8 9 - - - - - - - 15.0 - 0.0
02/03:00pm WSW 9 11 - - - - - - - 15.6 - 0.0
02/02:30pm SW 10 12 - - - - - - - 16.0 - 0.0
02/02:00pm SW 10 11 - - - - - - - 16.5 - 0.0
02/01:30pm WSW 9 10 - - - - - - - 17.0 - 0.0
02/01:00pm WSW 8 10 - - - - - - - 17.3 - 0.0
02/12:30pm WSW 7 9 - - - - - - - 17.3 - 0.0
02/12:00pm WSW 9 11 - - - - - - - 16.9 - 0.0
02/11:30am WSW 9 11 - - - - - - - 16.0 - 0.0
02/11:00am WSW 9 10 - - - - - - - 17.1 - 0.0
02/10:30am SW 4 5 - - - - - - - 17.6 - 0.0
02/10:00am WSW 5 5 - - - - - - - 17.0 - 0.0
02/09:30am NW 4 5 - - - - - - - 17.4 - 0.0
02/09:00am N 4 5 - - - - - - - 16.0 - 0.0
02/08:30am N 4 5 - - - - - - - 15.2 - 0.0
02/08:00am N 5 7 - - - - - - - 14.5 - 0.0
02/07:30am ENE 5 7 - - - - - - - 14.3 - 0.0
02/07:00am SSE 4 6 - - - - - - - 14.0 - 0.0
02/06:30am SSE 6 7 - - - - - - - 13.2 - 0.0
02/06:00am S 8 9 - - - - - - - 13.6 - 0.0
02/05:30am SSW 10 11 - - - - - - - 13.4 - 0.0
02/05:00am SSW 3 5 - - - - - - - 12.9 - 0.0
02/04:30am SSE 2 4 - - - - - - - 12.5 - 0.0
02/04:00am SE 3 3 - - - - - - - 12.1 - 0.0
02/03:30am SSE 5 6 - - - - - - - 12.2 - 0.0
02/03:00am SSE 4 5 - - - - - - - 12.6 - 0.0
02/02:30am SSE 6 9 - - - - - - - 13.0 - 0.0
02/02:00am S 9 12 - - - - - - - 13.5 - 0.0
02/01:30am S 7 9 - - - - - - - 13.8 - 0.0
02/01:00am S 8 9 - - - - - - - 13.9 - 0.0
02/12:30am S 8 11 - - - - - - - 13.9 - 0.0
02/12:00am S 8 9 - - - - - - - 14.0 - 0.0
 
Date/Time
EDT
Wind Sea
Height
m
Swell Vis
km
Cloud Weather Temp
°C
Press
MSL
hPa
Rain since
9am
mm
Dir  Spd
kts
Gust
kts
Height
m
Period
s
Dir
01/11:30pm S 6 8 - - - - - - - 14.0 - 0.0
01/11:00pm S 7 8 - - - - - - - 14.1 - 0.0
01/10:30pm S 6 8 - - - - - - - 13.9 - 0.0
01/10:00pm S 7 9 - - - - - - - 14.1 - 0.0
01/09:30pm S 9 11 - - - - - - - 14.3 - 0.0
01/09:00pm S 11 13 - - - - - - - 14.4 - 0.0
01/08:30pm S 10 13 - - - - - - - 14.6 - 0.0
01/08:00pm S 11 14 - - - - - - - 15.2 - 0.0
01/07:30pm S 10 14 - - - - - - - 15.9 - 0.0
01/07:00pm S 11 14 - - - - - - - 16.0 - 0.0
01/06:30pm S 11 14 - - - - - - - 16.1 - 0.0
01/06:00pm SSW 12 14 - - - - - - - 17.2 - 0.0
01/05:30pm SSW 10 13 - - - - - - - 17.2 - 0.0
01/05:00pm SSW 10 12 - - - - - - - 18.4 - 0.0
01/04:30pm SSW 9 11 - - - - - - - 18.8 - 0.0
01/04:00pm SSW 7 8 - - - - - - - 20.1 - 0.0
01/03:30pm SW 8 10 - - - - - - - 19.9 - 0.0
01/03:00pm SW 9 13 - - - - - - - 19.8 - 0.0
01/02:30pm SSW 6 7 - - - - - - - 19.6 - 0.0
01/02:00pm SSW 5 7 - - - - - - - 19.9 - 0.0
01/01:30pm SSW 7 8 - - - - - - - 17.4 - 0.0
01/01:00pm SSW 8 9 - - - - - - - 17.7 - 0.0
01/12:30pm SSW 6 7 - - - - - - - 17.6 - 0.0
01/12:00pm WSW 9 11 - - - - - - - 17.9 - 0.0
01/11:30am WSW 10 14 - - - - - - - 17.6 - 0.0
01/11:00am W 12 21 - - - - - - - 19.5 - 0.0
01/10:30am NNE 18 20 - - - - - - - 19.2 - 0.0
01/10:00am NNE 16 19 - - - - - - - 19.3 - 0.0
01/09:30am NNE 18 22 - - - - - - - 19.2 - 0.0
01/09:00am NNE 20 24 - - - - - - - 19.2 - 0.0
01/08:30am NNE 22 27 - - - - - - - 19.1 - 0.0
01/08:00am NNE 23 28 - - - - - - - 19.1 - 0.0
01/07:30am NNE 22 26 - - - - - - - 18.5 - 0.0
01/07:00am NNE 22 26 - - - - - - - 18.7 - 0.0
01/06:30am NNE 23 27 - - - - - - - 18.1 - 0.0
01/06:00am NNE 22 25 - - - - - - - 17.8 - 0.0
01/05:00am NNE 23 27 - - - - - - - 17.6 - 0.0
01/04:30am NNE 24 29 - - - - - - - 17.5 - 0.0
01/04:00am NNE 21 24 - - - - - - - 17.4 - 0.0
01/03:30am NNE 22 24 - - - - - - - 17.4 - 0.0
01/03:00am NNE 23 27 - - - - - - - 17.4 - 0.0
01/02:30am NNE 21 25 - - - - - - - 17.3 - 0.0
01/02:00am NNE 20 23 - - - - - - - 17.1 - 0.0
01/01:30am NNE 23 26 - - - - - - - 17.3 - 0.0
01/01:00am NNE 20 24 - - - - - - - 17.2 - 0.0
01/12:30am NNE 15 18 - - - - - - - 17.2 - 0.0
01/12:00am NNE 13 15 - - - - - - - 17.0 - 0.0
 
Date/Time
EDT
Wind Sea
Height
m
Swell Vis
km
Cloud Weather Temp
°C
Press
MSL
hPa
Rain since
9am
mm
Dir  Spd
kts
Gust
kts
Height
m
Period
s
Dir
30/11:30pm NE 15 17 - - - - - - - 17.0 - 0.0
30/11:00pm NE 16 19 - - - - - - - 17.3 - 0.0
30/10:30pm NNE 14 17 - - - - - - - 17.3 - 0.0
30/10:00pm NE 12 13 - - - - - - - 17.0 - 0.0
30/09:30pm NNE 8 10 - - - - - - - 16.4 - 0.0
30/09:00pm NNE 7 8 - - - - - - - 16.6 - 0.0
30/08:30pm NE 7 9 - - - - - - - 17.0 - 0.0
30/08:00pm NNE 6 7 - - - - - - - 16.8 - 0.0
30/07:30pm S 1 3 - - - - - - - 18.1 - 0.0
30/07:00pm S 4 4 - - - - - - - 18.1 - 0.0
30/06:30pm SSW 5 6 - - - - - - - 18.8 - 0.0
30/06:00pm SSW 6 8 - - - - - - - 19.0 - 0.0
30/05:30pm SSW 8 10 - - - - - - - 19.4 - 0.0

Other formats

Comma delimited format used in spreadsheet applications
http://www.bom.gov.au/fwo/IDT60701/IDT60701.94974.axf

JavaScript Object Notation format (JSON) in row-major order
http://www.bom.gov.au/fwo/IDT60701/IDT60701.94974.json

Data quality

Most of these data are generated automatically and are frequently updated. Quality checks on data are not normally performed. It is possible for incorrect values to appear. Refer to information at About Latest Weather Observations and please check the disclaimer before using these data.